sensor_id;sensor_type;location;lat;lon;timestamp;P1;durP1;ratioP1;P2;durP2;ratioP2
15271;SDS011;7737;51.578;7.268;2023-04-24T00:02:24;0.73;;;0.52;;
15271;SDS011;7737;51.578;7.268;2023-04-24T00:04:50;1.98;;;0.55;;
15271;SDS011;7737;51.578;7.268;2023-04-24T00:07:17;0.85;;;0.55;;
15271;SDS011;7737;51.578;7.268;2023-04-24T00:09:45;1.65;;;0.52;;
15271;SDS011;7737;51.578;7.268;2023-04-24T00:12:13;1.35;;;0.55;;
15271;SDS011;7737;51.578;7.268;2023-04-24T00:14:39;1.10;;;0.55;;
15271;SDS011;7737;51.578;7.268;2023-04-24T00:17:06;0.65;;;0.50;;
15271;SDS011;7737;51.578;7.268;2023-04-24T00:19:33;1.08;;;0.70;;
15271;SDS011;7737;51.578;7.268;2023-04-24T00:21:59;0.88;;;0.60;;
15271;SDS011;7737;51.578;7.268;2023-04-24T00:24:26;0.80;;;0.70;;
15271;SDS011;7737;51.578;7.268;2023-04-24T00:26:52;0.90;;;0.70;;
15271;SDS011;7737;51.578;7.268;2023-04-24T00:29:20;1.30;;;0.70;;
15271;SDS011;7737;51.578;7.268;2023-04-24T00:31:47;1.58;;;0.73;;
15271;SDS011;7737;51.578;7.268;2023-04-24T00:34:14;0.80;;;0.70;;
15271;SDS011;7737;51.578;7.268;2023-04-24T00:36:40;0.55;;;0.55;;
15271;SDS011;7737;51.578;7.268;2023-04-24T00:39:07;0.68;;;0.55;;
15271;SDS011;7737;51.578;7.268;2023-04-24T00:41:34;1.42;;;0.70;;
15271;SDS011;7737;51.578;7.268;2023-04-24T00:44:00;1.83;;;0.60;;
15271;SDS011;7737;51.578;7.268;2023-04-24T00:46:28;0.88;;;0.80;;
15271;SDS011;7737;51.578;7.268;2023-04-24T00:48:55;0.88;;;0.70;;
15271;SDS011;7737;51.578;7.268;2023-04-24T00:51:22;1.60;;;0.80;;
15271;SDS011;7737;51.578;7.268;2023-04-24T00:53:49;1.83;;;1.05;;
15271;SDS011;7737;51.578;7.268;2023-04-24T00:56:16;1.40;;;0.75;;
15271;SDS011;7737;51.578;7.268;2023-04-24T00:58:43;0.93;;;0.73;;
15271;SDS011;7737;51.578;7.268;2023-04-24T01:01:10;1.20;;;0.98;;
15271;SDS011;7737;51.578;7.268;2023-04-24T01:03:38;1.25;;;0.90;;
15271;SDS011;7737;51.578;7.268;2023-04-24T01:06:06;1.70;;;0.98;;
15271;SDS011;7737;51.578;7.268;2023-04-24T01:08:33;2.75;;;0.70;;
15271;SDS011;7737;51.578;7.268;2023-04-24T01:11:02;1.00;;;0.90;;
15271;SDS011;7737;51.578;7.268;2023-04-24T01:13:29;1.33;;;0.70;;
15271;SDS011;7737;51.578;7.268;2023-04-24T01:15:58;0.75;;;0.75;;
15271;SDS011;7737;51.578;7.268;2023-04-24T01:18:25;1.17;;;0.80;;
15271;SDS011;7737;51.578;7.268;2023-04-24T01:20:55;1.63;;;1.02;;
15271;SDS011;7737;51.578;7.268;2023-04-24T01:23:25;1.20;;;1.08;;
15271;SDS011;7737;51.578;7.268;2023-04-24T01:25:52;2.40;;;1.08;;
15271;SDS011;7737;51.578;7.268;2023-04-24T01:28:18;1.85;;;1.08;;
15271;SDS011;7737;51.578;7.268;2023-04-24T01:30:45;1.80;;;1.10;;
15271;SDS011;7737;51.578;7.268;2023-04-24T01:33:12;1.20;;;1.10;;
15271;SDS011;7737;51.578;7.268;2023-04-24T01:35:39;1.50;;;1.10;;
15271;SDS011;7737;51.578;7.268;2023-04-24T01:38:06;1.73;;;1.15;;
15271;SDS011;7737;51.578;7.268;2023-04-24T01:40:34;2.20;;;1.30;;
15271;SDS011;7737;51.578;7.268;2023-04-24T01:43:00;1.35;;;1.10;;
15271;SDS011;7737;51.578;7.268;2023-04-24T01:45:28;2.33;;;1.25;;
15271;SDS011;7737;51.578;7.268;2023-04-24T01:47:54;1.98;;;1.30;;
15271;SDS011;7737;51.578;7.268;2023-04-24T01:50:21;1.90;;;1.50;;
15271;SDS011;7737;51.578;7.268;2023-04-24T01:52:48;1.92;;;1.40;;
15271;SDS011;7737;51.578;7.268;2023-04-24T01:55:14;1.90;;;1.70;;
15271;SDS011;7737;51.578;7.268;2023-04-24T01:57:42;1.80;;;1.70;;
15271;SDS011;7737;51.578;7.268;2023-04-24T02:00:09;2.97;;;1.80;;
15271;SDS011;7737;51.578;7.268;2023-04-24T02:02:37;2.42;;;2.13;;
15271;SDS011;7737;51.578;7.268;2023-04-24T02:05:05;2.42;;;2.20;;
15271;SDS011;7737;51.578;7.268;2023-04-24T02:07:32;3.15;;;2.00;;
15271;SDS011;7737;51.578;7.268;2023-04-24T02:09:59;2.50;;;2.20;;
15271;SDS011;7737;51.578;7.268;2023-04-24T02:12:25;3.47;;;2.67;;
15271;SDS011;7737;51.578;7.268;2023-04-24T02:14:53;4.20;;;3.03;;
15271;SDS011;7737;51.578;7.268;2023-04-24T02:17:20;3.75;;;2.97;;
15271;SDS011;7737;51.578;7.268;2023-04-24T02:19:46;4.28;;;2.80;;
15271;SDS011;7737;51.578;7.268;2023-04-24T02:22:13;3.50;;;3.08;;
15271;SDS011;7737;51.578;7.268;2023-04-24T02:24:39;3.65;;;2.90;;
15271;SDS011;7737;51.578;7.268;2023-04-24T02:27:06;3.10;;;2.80;;
15271;SDS011;7737;51.578;7.268;2023-04-24T02:29:32;4.38;;;2.80;;
15271;SDS011;7737;51.578;7.268;2023-04-24T02:32:00;2.70;;;2.50;;
15271;SDS011;7737;51.578;7.268;2023-04-24T02:34:27;3.10;;;2.80;;
15271;SDS011;7737;51.578;7.268;2023-04-24T02:36:53;3.20;;;2.70;;
15271;SDS011;7737;51.578;7.268;2023-04-24T02:39:20;4.03;;;3.33;;
15271;SDS011;7737;51.578;7.268;2023-04-24T02:41:46;4.13;;;3.50;;
15271;SDS011;7737;51.578;7.268;2023-04-24T02:44:13;4.05;;;3.60;;
15271;SDS011;7737;51.578;7.268;2023-04-24T02:46:39;5.22;;;4.50;;
15271;SDS011;7737;51.578;7.268;2023-04-24T02:49:08;5.80;;;4.80;;
15271;SDS011;7737;51.578;7.268;2023-04-24T02:51:36;6.32;;;4.70;;
15271;SDS011;7737;51.578;7.268;2023-04-24T02:54:06;8.55;;;5.88;;
15271;SDS011;7737;51.578;7.268;2023-04-24T02:56:32;9.77;;;5.68;;
15271;SDS011;7737;51.578;7.268;2023-04-24T02:58:59;6.43;;;5.72;;
15271;SDS011;7737;51.578;7.268;2023-04-24T03:01:26;7.22;;;6.22;;
15271;SDS011;7737;51.578;7.268;2023-04-24T03:03:52;6.47;;;5.88;;
15271;SDS011;7737;51.578;7.268;2023-04-24T03:06:20;6.90;;;6.20;;
15271;SDS011;7737;51.578;7.268;2023-04-24T03:08:47;8.00;;;6.88;;
15271;SDS011;7737;51.578;7.268;2023-04-24T03:11:13;11.85;;;7.32;;
15271;SDS011;7737;51.578;7.268;2023-04-24T03:13:40;8.63;;;7.18;;
15271;SDS011;7737;51.578;7.268;2023-04-24T03:16:06;8.68;;;7.55;;
15271;SDS011;7737;51.578;7.268;2023-04-24T03:18:32;9.80;;;7.90;;
15271;SDS011;7737;51.578;7.268;2023-04-24T03:20:59;9.55;;;7.38;;
15271;SDS011;7737;51.578;7.268;2023-04-24T03:23:28;9.65;;;7.70;;
15271;SDS011;7737;51.578;7.268;2023-04-24T03:25:54;11.13;;;7.57;;
15271;SDS011;7737;51.578;7.268;2023-04-24T03:28:21;9.30;;;8.25;;
15271;SDS011;7737;51.578;7.268;2023-04-24T03:30:47;9.38;;;8.20;;
15271;SDS011;7737;51.578;7.268;2023-04-24T03:33:14;10.35;;;8.30;;
15271;SDS011;7737;51.578;7.268;2023-04-24T03:35:40;8.70;;;7.80;;
15271;SDS011;7737;51.578;7.268;2023-04-24T03:38:07;11.45;;;8.70;;
15271;SDS011;7737;51.578;7.268;2023-04-24T03:40:35;9.65;;;8.25;;
15271;SDS011;7737;51.578;7.268;2023-04-24T03:43:01;10.18;;;8.88;;
15271;SDS011;7737;51.578;7.268;2023-04-24T03:45:28;11.63;;;9.20;;
15271;SDS011;7737;51.578;7.268;2023-04-24T03:47:54;10.75;;;8.50;;
15271;SDS011;7737;51.578;7.268;2023-04-24T03:50:21;10.88;;;8.50;;
15271;SDS011;7737;51.578;7.268;2023-04-24T03:52:47;11.18;;;8.95;;
15271;SDS011;7737;51.578;7.268;2023-04-24T03:55:14;12.35;;;8.55;;
15271;SDS011;7737;51.578;7.268;2023-04-24T03:57:42;9.38;;;8.48;;
15271;SDS011;7737;51.578;7.268;2023-04-24T04:00:09;11.50;;;8.52;;
15271;SDS011;7737;51.578;7.268;2023-04-24T04:02:36;12.25;;;8.93;;
15271;SDS011;7737;51.578;7.268;2023-04-24T04:05:03;9.82;;;8.73;;
15271;SDS011;7737;51.578;7.268;2023-04-24T04:07:30;10.80;;;7.80;;
15271;SDS011;7737;51.578;7.268;2023-04-24T04:09:56;9.88;;;8.60;;
15271;SDS011;7737;51.578;7.268;2023-04-24T04:12:23;12.38;;;9.10;;
15271;SDS011;7737;51.578;7.268;2023-04-24T04:14:51;10.75;;;8.68;;
15271;SDS011;7737;51.578;7.268;2023-04-24T04:17:17;10.10;;;8.10;;
15271;SDS011;7737;51.578;7.268;2023-04-24T04:19:44;9.60;;;8.45;;
15271;SDS011;7737;51.578;7.268;2023-04-24T04:22:10;11.68;;;8.25;;
15271;SDS011;7737;51.578;7.268;2023-04-24T04:24:37;12.90;;;8.75;;
15271;SDS011;7737;51.578;7.268;2023-04-24T04:27:05;12.00;;;9.40;;
15271;SDS011;7737;51.578;7.268;2023-04-24T04:29:33;10.77;;;8.38;;
15271;SDS011;7737;51.578;7.268;2023-04-24T04:32:01;10.75;;;8.30;;
15271;SDS011;7737;51.578;7.268;2023-04-24T04:34:28;10.55;;;8.95;;
15271;SDS011;7737;51.578;7.268;2023-04-24T04:36:54;9.35;;;8.32;;
15271;SDS011;7737;51.578;7.268;2023-04-24T04:39:21;9.57;;;8.57;;
15271;SDS011;7737;51.578;7.268;2023-04-24T04:41:48;12.95;;;8.98;;
15271;SDS011;7737;51.578;7.268;2023-04-24T04:44:15;11.35;;;8.57;;
15271;SDS011;7737;51.578;7.268;2023-04-24T04:46:42;13.10;;;8.75;;
15271;SDS011;7737;51.578;7.268;2023-04-24T04:49:10;11.00;;;8.55;;
15271;SDS011;7737;51.578;7.268;2023-04-24T04:51:37;9.85;;;8.85;;
15271;SDS011;7737;51.578;7.268;2023-04-24T04:54:03;9.93;;;8.90;;
15271;SDS011;7737;51.578;7.268;2023-04-24T04:56:30;11.45;;;8.60;;
15271;SDS011;7737;51.578;7.268;2023-04-24T04:58:57;11.75;;;8.50;;
15271;SDS011;7737;51.578;7.268;2023-04-24T05:01:24;9.68;;;8.45;;
15271;SDS011;7737;51.578;7.268;2023-04-24T05:03:52;12.20;;;8.68;;
15271;SDS011;7737;51.578;7.268;2023-04-24T05:06:20;11.50;;;8.60;;
15271;SDS011;7737;51.578;7.268;2023-04-24T05:08:47;10.88;;;8.60;;
15271;SDS011;7737;51.578;7.268;2023-04-24T05:11:13;8.88;;;7.93;;
15271;SDS011;7737;51.578;7.268;2023-04-24T05:13:40;8.88;;;7.75;;
15271;SDS011;7737;51.578;7.268;2023-04-24T05:16:06;8.82;;;7.93;;
15271;SDS011;7737;51.578;7.268;2023-04-24T05:18:33;9.82;;;8.32;;
15271;SDS011;7737;51.578;7.268;2023-04-24T05:21:00;9.38;;;8.07;;
15271;SDS011;7737;51.578;7.268;2023-04-24T05:23:28;10.07;;;8.20;;
15271;SDS011;7737;51.578;7.268;2023-04-24T05:25:55;9.23;;;7.95;;
15271;SDS011;7737;51.578;7.268;2023-04-24T05:28:22;8.48;;;7.60;;
15271;SDS011;7737;51.578;7.268;2023-04-24T05:30:53;8.30;;;7.40;;
15271;SDS011;7737;51.578;7.268;2023-04-24T05:33:20;11.25;;;7.93;;
15271;SDS011;7737;51.578;7.268;2023-04-24T05:35:47;10.35;;;7.43;;
15271;SDS011;7737;51.578;7.268;2023-04-24T05:38:13;9.82;;;7.90;;
15271;SDS011;7737;51.578;7.268;2023-04-24T05:40:44;9.43;;;7.60;;
15271;SDS011;7737;51.578;7.268;2023-04-24T05:43:10;8.32;;;6.60;;
15271;SDS011;7737;51.578;7.268;2023-04-24T05:45:37;9.05;;;7.05;;
15271;SDS011;7737;51.578;7.268;2023-04-24T05:48:04;9.65;;;6.85;;
15271;SDS011;7737;51.578;7.268;2023-04-24T05:50:30;7.72;;;6.72;;
15271;SDS011;7737;51.578;7.268;2023-04-24T05:52:57;8.48;;;6.90;;
15271;SDS011;7737;51.578;7.268;2023-04-24T05:55:24;7.72;;;6.50;;
15271;SDS011;7737;51.578;7.268;2023-04-24T05:57:52;10.27;;;7.13;;
15271;SDS011;7737;51.578;7.268;2023-04-24T06:00:19;10.60;;;7.30;;
15271;SDS011;7737;51.578;7.268;2023-04-24T06:02:46;11.70;;;9.30;;
15271;SDS011;7737;51.578;7.268;2023-04-24T06:05:13;8.88;;;7.88;;
15271;SDS011;7737;51.578;7.268;2023-04-24T06:07:39;8.77;;;7.40;;
15271;SDS011;7737;51.578;7.268;2023-04-24T06:10:07;9.10;;;7.72;;
15271;SDS011;7737;51.578;7.268;2023-04-24T06:12:34;10.35;;;8.40;;
15271;SDS011;7737;51.578;7.268;2023-04-24T06:15:03;9.07;;;8.20;;
15271;SDS011;7737;51.578;7.268;2023-04-24T06:17:30;8.90;;;8.00;;
15271;SDS011;7737;51.578;7.268;2023-04-24T06:19:57;8.73;;;7.82;;
15271;SDS011;7737;51.578;7.268;2023-04-24T06:22:23;8.13;;;7.43;;
15271;SDS011;7737;51.578;7.268;2023-04-24T06:24:50;10.00;;;8.52;;
15271;SDS011;7737;51.578;7.268;2023-04-24T06:27:16;10.00;;;8.10;;
15271;SDS011;7737;51.578;7.268;2023-04-24T06:29:43;9.85;;;8.45;;
15271;SDS011;7737;51.578;7.268;2023-04-24T06:32:11;8.65;;;7.75;;
15271;SDS011;7737;51.578;7.268;2023-04-24T06:34:37;10.73;;;8.93;;
15271;SDS011;7737;51.578;7.268;2023-04-24T06:37:04;10.15;;;7.38;;
15271;SDS011;7737;51.578;7.268;2023-04-24T06:39:30;8.90;;;8.00;;
15271;SDS011;7737;51.578;7.268;2023-04-24T06:41:57;9.52;;;7.78;;
15271;SDS011;7737;51.578;7.268;2023-04-24T06:44:24;7.38;;;6.53;;
15271;SDS011;7737;51.578;7.268;2023-04-24T06:46:51;7.47;;;6.65;;
15271;SDS011;7737;51.578;7.268;2023-04-24T06:49:18;8.10;;;6.60;;
15271;SDS011;7737;51.578;7.268;2023-04-24T06:51:45;6.65;;;6.00;;
15271;SDS011;7737;51.578;7.268;2023-04-24T06:54:11;8.23;;;6.68;;
15271;SDS011;7737;51.578;7.268;2023-04-24T06:56:38;7.95;;;6.63;;
15271;SDS011;7737;51.578;7.268;2023-04-24T06:59:05;7.53;;;6.72;;
15271;SDS011;7737;51.578;7.268;2023-04-24T07:01:31;7.47;;;6.40;;
15271;SDS011;7737;51.578;7.268;2023-04-24T07:03:58;6.88;;;6.18;;
15271;SDS011;7737;51.578;7.268;2023-04-24T07:06:26;6.45;;;5.85;;
15271;SDS011;7737;51.578;7.268;2023-04-24T07:08:52;6.22;;;5.63;;
15271;SDS011;7737;51.578;7.268;2023-04-24T07:11:20;6.63;;;5.97;;
15271;SDS011;7737;51.578;7.268;2023-04-24T07:13:47;6.40;;;5.68;;
15271;SDS011;7737;51.578;7.268;2023-04-24T07:16:13;6.15;;;5.63;;
15271;SDS011;7737;51.578;7.268;2023-04-24T07:18:40;5.90;;;5.05;;
15271;SDS011;7737;51.578;7.268;2023-04-24T07:21:07;5.40;;;4.90;;
15271;SDS011;7737;51.578;7.268;2023-04-24T07:23:35;4.78;;;4.38;;
15271;SDS011;7737;51.578;7.268;2023-04-24T07:26:01;5.82;;;4.78;;
15271;SDS011;7737;51.578;7.268;2023-04-24T07:28:28;4.95;;;4.45;;
15271;SDS011;7737;51.578;7.268;2023-04-24T07:30:56;5.65;;;4.60;;
15271;SDS011;7737;51.578;7.268;2023-04-24T07:33:23;4.65;;;4.25;;
15271;SDS011;7737;51.578;7.268;2023-04-24T07:35:50;4.90;;;3.80;;
15271;SDS011;7737;51.578;7.268;2023-04-24T07:38:17;3.78;;;3.47;;
15271;SDS011;7737;51.578;7.268;2023-04-24T07:40:47;4.38;;;3.80;;
15271;SDS011;7737;51.578;7.268;2023-04-24T07:43:14;4.15;;;3.75;;
15271;SDS011;7737;51.578;7.268;2023-04-24T07:45:40;3.80;;;3.50;;
15271;SDS011;7737;51.578;7.268;2023-04-24T07:48:07;3.03;;;2.70;;
15271;SDS011;7737;51.578;7.268;2023-04-24T07:50:34;3.00;;;2.80;;
15271;SDS011;7737;51.578;7.268;2023-04-24T07:53:01;2.92;;;2.60;;
15271;SDS011;7737;51.578;7.268;2023-04-24T07:55:27;2.65;;;2.40;;
15271;SDS011;7737;51.578;7.268;2023-04-24T07:57:55;2.38;;;2.17;;
15271;SDS011;7737;51.578;7.268;2023-04-24T08:00:22;2.80;;;2.47;;
15271;SDS011;7737;51.578;7.268;2023-04-24T08:02:48;4.80;;;2.60;;
15271;SDS011;7737;51.578;7.268;2023-04-24T08:05:15;2.35;;;2.15;;
15271;SDS011;7737;51.578;7.268;2023-04-24T08:07:42;2.45;;;2.13;;
15271;SDS011;7737;51.578;7.268;2023-04-24T08:10:10;2.40;;;2.13;;
15271;SDS011;7737;51.578;7.268;2023-04-24T08:12:37;2.15;;;1.95;;
15271;SDS011;7737;51.578;7.268;2023-04-24T08:15:05;1.85;;;1.75;;
15271;SDS011;7737;51.578;7.268;2023-04-24T08:17:33;1.70;;;1.52;;
15271;SDS011;7737;51.578;7.268;2023-04-24T08:20:00;1.42;;;1.30;;
15271;SDS011;7737;51.578;7.268;2023-04-24T08:22:27;1.67;;;1.00;;
15271;SDS011;7737;51.578;7.268;2023-04-24T08:24:54;1.30;;;1.05;;
15271;SDS011;7737;51.578;7.268;2023-04-24T08:27:21;0.98;;;0.90;;
15271;SDS011;7737;51.578;7.268;2023-04-24T08:29:47;1.90;;;1.00;;
15271;SDS011;7737;51.578;7.268;2023-04-24T08:32:15;1.00;;;0.90;;
15271;SDS011;7737;51.578;7.268;2023-04-24T08:34:43;1.25;;;1.00;;
15271;SDS011;7737;51.578;7.268;2023-04-24T08:37:09;1.38;;;0.88;;
15271;SDS011;7737;51.578;7.268;2023-04-24T08:39:36;0.70;;;0.70;;
15271;SDS011;7737;51.578;7.268;2023-04-24T08:42:03;0.85;;;0.68;;
15271;SDS011;7737;51.578;7.268;2023-04-24T08:44:33;0.75;;;0.70;;
15271;SDS011;7737;51.578;7.268;2023-04-24T08:47:00;0.73;;;0.70;;
15271;SDS011;7737;51.578;7.268;2023-04-24T08:49:29;0.90;;;0.82;;
15271;SDS011;7737;51.578;7.268;2023-04-24T08:51:57;0.75;;;0.70;;
15271;SDS011;7737;51.578;7.268;2023-04-24T08:54:24;1.00;;;0.90;;
15271;SDS011;7737;51.578;7.268;2023-04-24T08:56:51;1.27;;;0.90;;
15271;SDS011;7737;51.578;7.268;2023-04-24T08:59:21;1.30;;;1.20;;
15271;SDS011;7737;51.578;7.268;2023-04-24T09:01:48;1.73;;;1.25;;
15271;SDS011;7737;51.578;7.268;2023-04-24T09:04:17;1.20;;;1.10;;
15271;SDS011;7737;51.578;7.268;2023-04-24T09:06:48;1.27;;;1.13;;
15271;SDS011;7737;51.578;7.268;2023-04-24T09:09:15;2.28;;;1.42;;
15271;SDS011;7737;51.578;7.268;2023-04-24T09:11:43;2.53;;;1.40;;
15271;SDS011;7737;51.578;7.268;2023-04-24T09:14:10;1.50;;;1.38;;
15271;SDS011;7737;51.578;7.268;2023-04-24T09:16:37;2.15;;;1.77;;
15271;SDS011;7737;51.578;7.268;2023-04-24T09:19:03;1.95;;;1.77;;
15271;SDS011;7737;51.578;7.268;2023-04-24T09:21:31;2.10;;;1.90;;
15271;SDS011;7737;51.578;7.268;2023-04-24T09:24:00;2.72;;;2.05;;
15271;SDS011;7737;51.578;7.268;2023-04-24T09:26:29;2.40;;;2.20;;
15271;SDS011;7737;51.578;7.268;2023-04-24T09:28:57;2.58;;;2.25;;
15271;SDS011;7737;51.578;7.268;2023-04-24T09:31:26;3.15;;;2.83;;
15271;SDS011;7737;51.578;7.268;2023-04-24T09:33:54;3.10;;;2.83;;
15271;SDS011;7737;51.578;7.268;2023-04-24T09:36:26;3.13;;;2.83;;
15271;SDS011;7737;51.578;7.268;2023-04-24T09:38:53;3.17;;;2.92;;
15271;SDS011;7737;51.578;7.268;2023-04-24T09:41:25;2.97;;;2.65;;
15271;SDS011;7737;51.578;7.268;2023-04-24T09:43:53;3.30;;;2.83;;
15271;SDS011;7737;51.578;7.268;2023-04-24T09:46:19;5.60;;;2.97;;
15271;SDS011;7737;51.578;7.268;2023-04-24T09:48:47;2.88;;;2.35;;
15271;SDS011;7737;51.578;7.268;2023-04-24T09:51:14;2.45;;;2.25;;
15271;SDS011;7737;51.578;7.268;2023-04-24T09:53:44;2.78;;;2.53;;
15271;SDS011;7737;51.578;7.268;2023-04-24T09:56:12;4.28;;;2.85;;
15271;SDS011;7737;51.578;7.268;2023-04-24T09:58:40;3.85;;;2.40;;
15271;SDS011;7737;51.578;7.268;2023-04-24T10:01:07;2.90;;;1.90;;
15271;SDS011;7737;51.578;7.268;2023-04-24T10:03:33;1.42;;;1.30;;
15271;SDS011;7737;51.578;7.268;2023-04-24T10:06:01;1.42;;;1.33;;
15271;SDS011;7737;51.578;7.268;2023-04-24T10:08:33;3.13;;;1.60;;
15271;SDS011;7737;51.578;7.268;2023-04-24T10:11:00;3.65;;;2.00;;
15271;SDS011;7737;51.578;7.268;2023-04-24T10:13:27;2.13;;;1.92;;
15271;SDS011;7737;51.578;7.268;2023-04-24T10:15:55;4.90;;;2.72;;
15271;SDS011;7737;51.578;7.268;2023-04-24T10:18:22;4.28;;;2.90;;
15271;SDS011;7737;51.578;7.268;2023-04-24T10:20:51;4.18;;;3.08;;
15271;SDS011;7737;51.578;7.268;2023-04-24T10:23:19;4.38;;;3.10;;
15271;SDS011;7737;51.578;7.268;2023-04-24T10:25:47;4.60;;;4.20;;
15271;SDS011;7737;51.578;7.268;2023-04-24T10:28:15;3.75;;;3.35;;
15271;SDS011;7737;51.578;7.268;2023-04-24T10:30:44;3.45;;;3.10;;
15271;SDS011;7737;51.578;7.268;2023-04-24T10:33:13;6.68;;;3.40;;
15271;SDS011;7737;51.578;7.268;2023-04-24T10:35:40;3.55;;;3.22;;
15271;SDS011;7737;51.578;7.268;2023-04-24T10:38:13;5.38;;;3.50;;
15271;SDS011;7737;51.578;7.268;2023-04-24T10:40:43;5.03;;;4.10;;
15271;SDS011;7737;51.578;7.268;2023-04-24T10:43:09;5.50;;;4.10;;
15271;SDS011;7737;51.578;7.268;2023-04-24T10:45:36;5.00;;;4.50;;
15271;SDS011;7737;51.578;7.268;2023-04-24T10:48:04;5.80;;;5.10;;
15271;SDS011;7737;51.578;7.268;2023-04-24T10:50:43;5.97;;;5.38;;
15271;SDS011;7737;51.578;7.268;2023-04-24T10:53:15;5.28;;;4.78;;
15271;SDS011;7737;51.578;7.268;2023-04-24T10:55:44;7.28;;;5.35;;
15271;SDS011;7737;51.578;7.268;2023-04-24T10:58:12;6.72;;;4.93;;
15271;SDS011;7737;51.578;7.268;2023-04-24T11:00:40;5.32;;;4.80;;
15271;SDS011;7737;51.578;7.268;2023-04-24T11:03:12;6.25;;;4.28;;
15271;SDS011;7737;51.578;7.268;2023-04-24T11:05:51;8.05;;;4.32;;
15271;SDS011;7737;51.578;7.268;2023-04-24T11:08:21;8.23;;;4.10;;
15271;SDS011;7737;51.578;7.268;2023-04-24T11:10:54;8.07;;;4.38;;
15271;SDS011;7737;51.578;7.268;2023-04-24T11:13:23;9.35;;;4.70;;
15271;SDS011;7737;51.578;7.268;2023-04-24T11:18:41;10.35;;;4.55;;
15271;SDS011;7737;51.578;7.268;2023-04-24T11:21:12;7.80;;;4.50;;
15271;SDS011;7737;51.578;7.268;2023-04-24T11:23:39;10.98;;;4.57;;
15271;SDS011;7737;51.578;7.268;2023-04-24T11:26:12;9.18;;;4.53;;
15271;SDS011;7737;51.578;7.268;2023-04-24T11:28:46;8.18;;;4.85;;
15271;SDS011;7737;51.578;7.268;2023-04-24T11:31:33;10.15;;;5.55;;
15271;SDS011;7737;51.578;7.268;2023-04-24T11:34:05;9.60;;;5.53;;
15271;SDS011;7737;51.578;7.268;2023-04-24T11:36:37;12.50;;;5.85;;
15271;SDS011;7737;51.578;7.268;2023-04-24T11:39:04;10.25;;;5.13;;
15271;SDS011;7737;51.578;7.268;2023-04-24T11:41:31;10.30;;;4.93;;
15271;SDS011;7737;51.578;7.268;2023-04-24T11:43:57;10.18;;;4.88;;
15271;SDS011;7737;51.578;7.268;2023-04-24T11:46:27;12.27;;;6.10;;
15271;SDS011;7737;51.578;7.268;2023-04-24T11:48:55;9.98;;;4.45;;
15271;SDS011;7737;51.578;7.268;2023-04-24T11:51:22;8.45;;;4.35;;
15271;SDS011;7737;51.578;7.268;2023-04-24T11:53:52;11.88;;;5.10;;
15271;SDS011;7737;51.578;7.268;2023-04-24T11:56:19;12.13;;;4.82;;
15271;SDS011;7737;51.578;7.268;2023-04-24T11:58:47;11.80;;;5.18;;
15271;SDS011;7737;51.578;7.268;2023-04-24T12:01:14;11.13;;;4.65;;
15271;SDS011;7737;51.578;7.268;2023-04-24T12:03:40;9.77;;;4.95;;
15271;SDS011;7737;51.578;7.268;2023-04-24T12:06:09;8.65;;;4.28;;
15271;SDS011;7737;51.578;7.268;2023-04-24T12:08:37;8.25;;;4.93;;
15271;SDS011;7737;51.578;7.268;2023-04-24T12:11:05;10.77;;;5.22;;
15271;SDS011;7737;51.578;7.268;2023-04-24T12:13:33;10.05;;;5.55;;
15271;SDS011;7737;51.578;7.268;2023-04-24T12:16:01;9.68;;;4.80;;
15271;SDS011;7737;51.578;7.268;2023-04-24T12:18:28;9.15;;;3.75;;
15271;SDS011;7737;51.578;7.268;2023-04-24T12:20:54;6.18;;;2.63;;
15271;SDS011;7737;51.578;7.268;2023-04-24T12:23:33;7.60;;;2.83;;
15271;SDS011;7737;51.578;7.268;2023-04-24T12:26:00;6.78;;;2.85;;
15271;SDS011;7737;51.578;7.268;2023-04-24T12:28:35;8.98;;;3.17;;
15271;SDS011;7737;51.578;7.268;2023-04-24T12:31:03;8.07;;;3.33;;
15271;SDS011;7737;51.578;7.268;2023-04-24T12:33:32;6.32;;;3.47;;
15271;SDS011;7737;51.578;7.268;2023-04-24T12:36:00;6.95;;;3.20;;
15271;SDS011;7737;51.578;7.268;2023-04-24T12:38:27;4.15;;;2.45;;
15271;SDS011;7737;51.578;7.268;2023-04-24T12:41:02;5.25;;;2.40;;
15271;SDS011;7737;51.578;7.268;2023-04-24T12:43:30;5.90;;;2.20;;
15271;SDS011;7737;51.578;7.268;2023-04-24T12:45:58;5.38;;;2.38;;
15271;SDS011;7737;51.578;7.268;2023-04-24T12:48:25;7.25;;;2.65;;
15271;SDS011;7737;51.578;7.268;2023-04-24T12:50:51;4.68;;;2.92;;
15271;SDS011;7737;51.578;7.268;2023-04-24T12:53:18;7.07;;;2.92;;
15271;SDS011;7737;51.578;7.268;2023-04-24T12:55:44;6.38;;;3.63;;
15271;SDS011;7737;51.578;7.268;2023-04-24T12:58:12;4.10;;;2.72;;
15271;SDS011;7737;51.578;7.268;2023-04-24T13:00:38;3.88;;;2.70;;
15271;SDS011;7737;51.578;7.268;2023-04-24T13:03:09;5.57;;;3.10;;
15271;SDS011;7737;51.578;7.268;2023-04-24T13:05:36;5.82;;;2.70;;
15271;SDS011;7737;51.578;7.268;2023-04-24T13:08:02;5.63;;;2.85;;
15271;SDS011;7737;51.578;7.268;2023-04-24T13:10:29;4.50;;;2.70;;
15271;SDS011;7737;51.578;7.268;2023-04-24T13:12:57;5.55;;;2.67;;
15271;SDS011;7737;51.578;7.268;2023-04-24T13:15:23;5.55;;;2.55;;
15271;SDS011;7737;51.578;7.268;2023-04-24T13:17:50;3.10;;;2.00;;
15271;SDS011;7737;51.578;7.268;2023-04-24T13:20:18;4.40;;;2.55;;
15271;SDS011;7737;51.578;7.268;2023-04-24T13:22:44;4.80;;;2.00;;
15271;SDS011;7737;51.578;7.268;2023-04-24T13:25:11;5.57;;;2.20;;
15271;SDS011;7737;51.578;7.268;2023-04-24T13:27:38;5.43;;;2.67;;
15271;SDS011;7737;51.578;7.268;2023-04-24T13:30:05;4.85;;;1.83;;
15271;SDS011;7737;51.578;7.268;2023-04-24T13:32:32;6.57;;;1.90;;
15271;SDS011;7737;51.578;7.268;2023-04-24T13:35:00;4.95;;;1.67;;
15271;SDS011;7737;51.578;7.268;2023-04-24T13:37:28;3.58;;;1.85;;
15271;SDS011;7737;51.578;7.268;2023-04-24T13:39:55;3.60;;;1.67;;
15271;SDS011;7737;51.578;7.268;2023-04-24T13:42:21;2.72;;;1.50;;
15271;SDS011;7737;51.578;7.268;2023-04-24T13:44:48;3.20;;;1.67;;
15271;SDS011;7737;51.578;7.268;2023-04-24T13:47:16;3.83;;;1.80;;
15271;SDS011;7737;51.578;7.268;2023-04-24T13:49:42;3.85;;;2.03;;
15271;SDS011;7737;51.578;7.268;2023-04-24T13:52:09;2.42;;;1.63;;
15271;SDS011;7737;51.578;7.268;2023-04-24T13:54:37;3.60;;;1.80;;
15271;SDS011;7737;51.578;7.268;2023-04-24T13:57:03;3.38;;;2.03;;
15271;SDS011;7737;51.578;7.268;2023-04-24T13:59:30;3.75;;;2.17;;
15271;SDS011;7737;51.578;7.268;2023-04-24T14:01:57;4.10;;;2.03;;
15271;SDS011;7737;51.578;7.268;2023-04-24T14:04:23;2.42;;;1.55;;
15271;SDS011;7737;51.578;7.268;2023-04-24T14:06:49;3.20;;;2.00;;
15271;SDS011;7737;51.578;7.268;2023-04-24T14:09:16;3.25;;;1.90;;
15271;SDS011;7737;51.578;7.268;2023-04-24T14:11:44;3.20;;;2.08;;
15271;SDS011;7737;51.578;7.268;2023-04-24T14:14:11;3.03;;;2.00;;
15271;SDS011;7737;51.578;7.268;2023-04-24T14:16:37;4.80;;;2.60;;
15271;SDS011;7737;51.578;7.268;2023-04-24T14:19:04;3.47;;;2.40;;
15271;SDS011;7737;51.578;7.268;2023-04-24T14:21:32;4.07;;;2.67;;
15271;SDS011;7737;51.578;7.268;2023-04-24T14:23:58;5.45;;;2.20;;
15271;SDS011;7737;51.578;7.268;2023-04-24T14:26:25;3.10;;;2.47;;
15271;SDS011;7737;51.578;7.268;2023-04-24T14:28:53;11.20;;;8.88;;
15271;SDS011;7737;51.578;7.268;2023-04-24T14:31:20;4.28;;;2.92;;
15271;SDS011;7737;51.578;7.268;2023-04-24T14:33:46;7.88;;;3.00;;
15271;SDS011;7737;51.578;7.268;2023-04-24T14:36:13;5.05;;;4.53;;
15271;SDS011;7737;51.578;7.268;2023-04-24T14:38:40;3.63;;;2.40;;
15271;SDS011;7737;51.578;7.268;2023-04-24T14:41:06;5.13;;;2.55;;
15271;SDS011;7737;51.578;7.268;2023-04-24T14:43:35;6.95;;;2.50;;
15271;SDS011;7737;51.578;7.268;2023-04-24T14:46:03;5.22;;;2.47;;
15271;SDS011;7737;51.578;7.268;2023-04-24T14:48:30;7.40;;;3.30;;
15271;SDS011;7737;51.578;7.268;2023-04-24T14:50:57;5.70;;;2.33;;
15271;SDS011;7737;51.578;7.268;2023-04-24T14:53:24;5.95;;;2.60;;
15271;SDS011;7737;51.578;7.268;2023-04-24T14:55:51;5.15;;;2.63;;
15271;SDS011;7737;51.578;7.268;2023-04-24T14:58:18;5.60;;;2.78;;
15271;SDS011;7737;51.578;7.268;2023-04-24T15:00:44;3.78;;;2.60;;
15271;SDS011;7737;51.578;7.268;2023-04-24T15:03:13;4.68;;;3.00;;
15271;SDS011;7737;51.578;7.268;2023-04-24T15:05:39;6.28;;;2.88;;